Time;durP1;ratioP1;P1;durP2;ratioP2;P2;SDS_P1;SDS_P2;PMS_P1;PMS_P2;Temp;Humidity;BMP_temperature;BMP_pressure;BME280_temperature;BME280_humidity;BME280_pressure;Samples;Min_cycle;Max_cycle;Signal;HPM_P1;HPM_P2
2021/03/30 00:01:11;;;;;;;12.82;11.00;;;;;;;9.58;65.33;102885.72;1738097;82;21172;-49
2021/03/30 00:03:39;;;;;;;11.80;10.55;;;;;;;9.68;65.06;102890.23;1737202;82;21173;-49
2021/03/30 00:06:07;;;;;;;13.60;11.33;;;;;;;9.73;64.97;102891.17;1742231;82;21152;-49
2021/03/30 00:08:36;;;;;;;13.13;10.72;;;;;;;9.74;64.85;102892.94;1734958;82;21184;-49
2021/03/30 00:11:04;;;;;;;12.55;11.25;;;;;;;9.59;65.24;102892.68;1741407;82;21181;-50
2021/03/30 00:13:32;;;;;;;12.15;10.75;;;;;;;9.65;65.03;102888.88;1739467;82;21573;-49
2021/03/30 00:16:00;;;;;;;14.87;12.25;;;;;;;9.70;64.82;102884.64;1739150;82;21160;-49
2021/03/30 00:18:28;;;;;;;11.75;10.28;;;;;;;9.70;64.79;102888.54;1740486;82;21155;-50
2021/03/30 00:20:56;;;;;;;14.07;11.15;;;;;;;9.70;64.75;102888.54;1736349;82;21199;-49
2021/03/30 00:23:24;;;;;;;12.95;10.72;;;;;;;9.69;64.67;102889.38;1743175;82;21152;-49
2021/03/30 00:25:52;;;;;;;12.28;10.98;;;;;;;9.71;64.59;102896.77;1740037;82;21156;-50
2021/03/30 00:28:20;;;;;;;11.05;9.98;;;;;;;9.58;64.99;102896.11;1738132;82;21164;-50
2021/03/30 00:30:48;;;;;;;12.20;11.05;;;;;;;9.57;65.09;102898.70;1738180;81;21584;-50
2021/03/30 00:33:16;;;;;;;12.53;11.22;;;;;;;9.56;65.15;102893.91;1733474;82;21130;-49
2021/03/30 00:35:44;;;;;;;13.78;11.45;;;;;;;9.50;65.36;102892.52;1737132;82;21168;-50
2021/03/30 00:38:13;;;;;;;12.43;11.12;;;;;;;9.48;65.51;102894.22;1728051;82;21161;-50
2021/03/30 00:40:41;;;;;;;11.85;10.55;;;;;;;9.51;65.42;102896.88;1747472;82;21153;-49
2021/03/30 00:43:09;;;;;;;11.35;10.23;;;;;;;9.52;65.38;102896.02;1737361;82;21361;-50
2021/03/30 00:45:37;;;;;;;11.22;10.03;;;;;;;9.51;65.37;102891.69;1738383;82;21148;-49
2021/03/30 00:48:07;;;;;;;12.28;10.95;;;;;;;9.52;65.33;102889.52;1738109;82;21302;-50
2021/03/30 00:50:35;;;;;;;12.40;11.05;;;;;;;9.50;65.29;102892.52;1738244;82;21133;-49
2021/03/30 00:53:04;;;;;;;11.90;10.65;;;;;;;9.49;65.28;102901.18;1708105;82;21160;-49
2021/03/30 00:55:33;;;;;;;12.53;10.68;;;;;;;9.49;65.34;102891.20;1738392;82;21180;-49
2021/03/30 00:58:01;;;;;;;15.45;11.78;;;;;;;9.47;65.49;102892.48;1739237;82;21605;-49
2021/03/30 01:00:30;;;;;;;14.20;12.07;;;;;;;9.45;65.57;102903.28;1730861;81;21157;-50
2021/03/30 01:02:58;;;;;;;14.68;12.30;;;;;;;9.42;65.61;102907.11;1727220;82;21118;-50
2021/03/30 01:05:26;;;;;;;14.07;12.35;;;;;;;9.41;65.52;102909.27;1704413;82;21169;-49
2021/03/30 01:08:02;;;;;;;13.98;12.55;;;;;;;9.38;65.52;102911.80;1725993;82;21141;-50
2021/03/30 01:11:04;;;;;;;14.20;12.10;;;;;;;9.35;65.62;102905.27;1721381;82;21157;-51
2021/03/30 01:13:38;;;;;;;13.55;12.13;;;;;;;9.32;65.83;102906.92;1732161;82;21338;-50
2021/03/30 01:16:16;;;;;;;16.07;13.25;;;;;;;9.29;65.81;102909.06;1719739;82;21379;-50
2021/03/30 01:18:50;;;;;;;14.75;12.05;;;;;;;9.26;65.87;102912.01;1677800;84;21263;-49
2021/03/30 01:21:42;;;;;;;14.07;12.53;;;;;;;9.23;65.95;102916.75;1680216;84;21140;-50
2021/03/30 01:24:23;;;;;;;15.70;13.13;;;;;;;9.22;66.05;102921.48;1675434;83;21247;-50
2021/03/30 01:27:01;;;;;;;15.25;13.30;;;;;;;9.21;66.05;102922.31;1655521;84;21232;-50
2021/03/30 01:29:52;;;;;;;13.62;12.20;;;;;;;9.19;66.00;102924.01;1683104;84;21211;-49
2021/03/30 01:32:39;;;;;;;15.58;13.25;;;;;;;9.17;66.12;102927.00;1678183;84;21179;-49
2021/03/30 01:35:14;;;;;;;16.12;13.83;;;;;;;9.19;66.20;102925.30;1683940;84;21132;-49
2021/03/30 01:37:44;;;;;;;15.05;12.43;;;;;;;9.18;66.11;102926.58;1666087;85;21132;-49
2021/03/30 01:40:15;;;;;;;14.73;13.22;;;;;;;9.19;66.11;102931.80;1682049;84;21272;-49
2021/03/30 01:42:43;;;;;;;14.47;12.63;;;;;;;9.21;66.07;102931.40;1679390;85;21171;-50
2021/03/30 01:45:19;;;;;;;14.87;12.93;;;;;;;9.26;66.18;102930.20;1810173;79;22947;-49
2021/03/30 01:47:47;;;;;;;17.00;13.85;;;;;;;9.22;66.04;102928.39;1776765;80;21163;-49
2021/03/30 01:50:16;;;;;;;16.82;14.13;;;;;;;9.18;65.95;102932.66;1778432;80;21140;-49
2021/03/30 01:52:44;;;;;;;14.47;12.98;;;;;;;9.17;65.81;102928.30;1772999;80;21151;-49
2021/03/30 01:55:15;;;;;;;14.95;13.22;;;;;;;9.17;65.84;102934.79;1772810;80;21187;-49
2021/03/30 01:57:49;;;;;;;16.23;13.15;;;;;;;9.15;65.86;102933.04;1779972;80;21117;-50
2021/03/30 02:00:20;;;;;;;16.95;14.83;;;;;;;9.14;65.86;102941.25;1771371;80;21156;-49
2021/03/30 02:02:47;;;;;;;15.93;14.23;;;;;;;9.15;65.88;102940.38;1771473;80;21165;-49
2021/03/30 02:05:17;;;;;;;16.32;14.18;;;;;;;9.14;65.92;102943.84;1761825;80;21286;-49
2021/03/30 02:07:45;;;;;;;15.23;13.62;;;;;;;9.16;65.90;102933.47;1783528;80;21156;-49
2021/03/30 02:10:17;;;;;;;15.32;13.72;;;;;;;9.17;65.86;102940.44;1776649;80;21128;-49
2021/03/30 02:12:45;;;;;;;15.45;13.88;;;;;;;9.21;65.74;102936.59;1779017;80;21151;-49
2021/03/30 02:15:16;;;;;;;16.37;13.85;;;;;;;9.25;65.60;102942.75;1774559;80;21156;-49
2021/03/30 02:18:14;;;;;;;15.72;14.07;;;;;;;9.32;65.38;102941.58;1781964;80;21163;-49
2021/03/30 02:20:48;;;;;;;16.05;14.35;;;;;;;9.34;65.32;102943.78;1667596;85;21214;-49
2021/03/30 02:23:21;;;;;;;16.07;14.18;;;;;;;9.32;65.36;102944.17;1667356;86;21340;-49
2021/03/30 02:25:56;;;;;;;16.32;14.55;;;;;;;9.38;65.20;102949.48;1771557;79;23078;-50
2021/03/30 02:28:38;;;;;;;16.17;14.55;;;;;;;9.31;65.23;102947.64;1742002;82;21149;-49
2021/03/30 02:31:04;;;;;;;16.75;13.90;;;;;;;9.30;65.42;102945.87;1733295;82;21311;-49
2021/03/30 02:33:32;;;;;;;16.50;14.23;;;;;;;9.32;65.45;102945.47;1724073;82;21145;-49
2021/03/30 02:36:00;;;;;;;17.52;14.38;;;;;;;9.33;65.31;102948.54;1722111;82;21278;-50
2021/03/30 02:38:30;;;;;;;16.30;13.43;;;;;;;9.34;65.14;102946.38;1736996;82;21180;-50
2021/03/30 02:40:59;;;;;;;18.48;13.90;;;;;;;9.35;64.88;102949.44;1732042;82;21117;-50
2021/03/30 02:43:27;;;;;;;18.48;16.17;;;;;;;9.33;64.90;102952.44;1742146;82;21330;-49
2021/03/30 02:45:58;;;;;;;16.10;13.90;;;;;;;9.31;64.67;102951.53;1743104;81;21628;-49
2021/03/30 02:48:26;;;;;;;16.23;14.00;;;;;;;9.27;64.71;102952.33;1732155;82;21169;-49
2021/03/30 02:50:55;;;;;;;14.78;13.20;;;;;;;9.23;64.74;102950.52;1745137;82;21627;-50
2021/03/30 02:53:23;;;;;;;17.73;15.20;;;;;;;9.20;64.78;102954.34;1724358;82;21188;-49
2021/03/30 02:55:51;;;;;;;16.40;14.60;;;;;;;9.16;64.82;102951.23;1736620;82;21156;-49
2021/03/30 02:58:21;;;;;;;17.30;14.78;;;;;;;9.14;64.69;102960.73;1737174;82;21318;-49
2021/03/30 03:00:50;;;;;;;16.50;14.15;;;;;;;9.13;64.66;102965.45;1741458;82;21149;-49
2021/03/30 03:03:18;;;;;;;16.42;14.00;;;;;;;9.10;64.77;102973.62;1735967;82;21593;-49
2021/03/30 03:05:46;;;;;;;15.45;13.80;;;;;;;9.10;64.76;102977.09;1689913;82;21164;-50
2021/03/30 03:08:15;;;;;;;18.50;14.80;;;;;;;9.09;64.82;102983.13;1738689;82;21621;-50
2021/03/30 03:10:44;;;;;;;17.27;14.73;;;;;;;9.07;64.75;102986.11;1737705;82;21180;-50
2021/03/30 03:13:14;;;;;;;15.65;14.03;;;;;;;9.05;64.75;102981.31;1743512;82;21569;-50
2021/03/30 03:15:42;;;;;;;15.90;14.30;;;;;;;9.06;64.72;102983.50;1739259;82;21140;-49
2021/03/30 03:18:10;;;;;;;15.80;14.07;;;;;;;9.06;64.73;102985.67;1713381;82;21286;-49
2021/03/30 03:20:39;;;;;;;16.82;14.47;;;;;;;9.05;64.73;102982.61;1732258;82;21181;-50
2021/03/30 03:23:07;;;;;;;16.27;14.58;;;;;;;9.07;64.60;102987.41;1744398;82;21156;-49
2021/03/30 03:25:35;;;;;;;15.53;13.85;;;;;;;9.08;64.50;102987.88;1723382;82;21149;-49
2021/03/30 03:28:05;;;;;;;15.30;13.55;;;;;;;9.08;64.58;102993.08;1727584;82;21166;-49
2021/03/30 03:30:33;;;;;;;16.93;14.75;;;;;;;9.10;64.49;102990.08;1725163;82;21145;-49
2021/03/30 03:33:11;;;;;;;17.00;13.95;;;;;;;9.09;64.40;102995.26;1729491;82;21315;-49
2021/03/30 03:35:44;;;;;;;16.65;14.43;;;;;;;9.05;64.46;102991.70;1652309;86;21263;-50
2021/03/30 03:38:13;;;;;;;16.20;14.13;;;;;;;9.02;64.57;102998.15;1647464;86;21202;-50
2021/03/30 03:40:41;;;;;;;18.10;14.28;;;;;;;9.05;64.57;103007.73;1650398;86;21191;-50
2021/03/30 03:43:09;;;;;;;16.30;14.55;;;;;;;9.05;64.47;103009.87;1650981;86;21242;-49
2021/03/30 03:45:39;;;;;;;18.70;14.98;;;;;;;9.05;64.44;103018.97;1650006;86;21160;-50
2021/03/30 03:48:07;;;;;;;15.78;14.18;;;;;;;9.07;64.26;103025.06;1649718;86;21617;-49
2021/03/30 03:50:35;;;;;;;15.88;14.20;;;;;;;9.08;64.19;103024.24;1649670;86;21185;-49
2021/03/30 03:53:03;;;;;;;16.37;14.33;;;;;;;9.08;64.21;103025.54;1649681;86;21325;-49
2021/03/30 03:55:31;;;;;;;16.73;14.93;;;;;;;9.11;64.09;103028.18;1631747;86;21358;-49
2021/03/30 03:58:03;;;;;;;18.00;15.38;;;;;;;9.10;63.99;103027.74;1650366;86;21329;-50
2021/03/30 04:00:36;;;;;;;15.83;14.07;;;;;;;9.13;63.96;103020.44;1773516;79;23088;-49
2021/03/30 04:03:22;;;;;;;17.25;14.73;;;;;;;9.08;63.92;103022.94;1739433;82;21613;-51
2021/03/30 04:05:58;;;;;;;16.07;13.88;;;;;;;9.10;63.73;103025.14;1734708;82;21279;-49
2021/03/30 04:08:29;;;;;;;16.70;14.25;;;;;;;9.11;63.58;103028.18;1739734;82;21148;-49
2021/03/30 04:10:58;;;;;;;17.57;14.87;;;;;;;9.10;63.60;103023.84;1737828;82;21199;-50
2021/03/30 04:13:29;;;;;;;17.73;14.20;;;;;;;9.11;63.45;103032.08;1682783;82;21342;-50
2021/03/30 04:16:02;;;;;;;17.45;14.20;;;;;;;9.11;63.49;103026.88;1719519;82;21173;-51
2021/03/30 04:18:34;;;;;;;18.17;14.75;;;;;;;9.06;63.73;103036.32;1736916;82;21156;-52
2021/03/30 04:21:16;;;;;;;18.25;14.85;;;;;;;9.05;63.82;103040.19;1739150;82;21600;-50
2021/03/30 04:23:45;;;;;;;16.12;14.43;;;;;;;9.03;63.93;103032.34;1739701;82;21160;-49
2021/03/30 04:26:13;;;;;;;19.12;16.05;;;;;;;9.06;63.82;103032.42;1741115;82;21117;-49
2021/03/30 04:28:41;;;;;;;16.15;13.98;;;;;;;9.09;63.82;103031.17;1732738;82;21306;-48
2021/03/30 04:31:10;;;;;;;16.25;13.28;;;;;;;9.12;63.73;103033.84;1744501;82;21171;-50
2021/03/30 04:33:38;;;;;;;17.82;14.87;;;;;;;9.13;63.48;103037.33;1732753;82;21140;-48
2021/03/30 04:36:08;;;;;;;18.92;15.05;;;;;;;9.12;63.49;103032.96;1737480;82;22243;-48
2021/03/30 04:38:35;;;;;;;18.82;14.47;;;;;;;9.14;63.48;103037.77;1734947;81;21152;-48
2021/03/30 04:41:06;;;;;;;15.90;14.25;;;;;;;9.16;63.52;103036.95;1739428;82;21569;-48
2021/03/30 04:43:34;;;;;;;19.02;14.40;;;;;;;9.18;63.38;103041.76;1740552;82;21164;-49
2021/03/30 04:46:03;;;;;;;16.55;14.60;;;;;;;9.21;63.42;103045.70;1742154;82;21604;-48
2021/03/30 04:48:30;;;;;;;15.45;13.30;;;;;;;9.22;63.35;103047.47;1731918;82;21160;-48
2021/03/30 04:50:59;;;;;;;15.25;13.65;;;;;;;9.26;63.24;103042.78;1738583;82;21144;-49
2021/03/30 04:53:28;;;;;;;20.02;14.90;;;;;;;9.31;63.08;103042.88;1733704;82;21306;-49
2021/03/30 04:55:55;;;;;;;21.55;16.48;;;;;;;9.26;62.92;103050.58;1741333;82;21212;-50
2021/03/30 04:58:23;;;;;;;19.57;15.80;;;;;;;9.17;63.09;103058.17;1733167;82;21160;-49
2021/03/30 05:00:52;;;;;;;18.62;15.30;;;;;;;9.09;63.27;103054.54;1737332;81;21160;-51
2021/03/30 05:03:20;;;;;;;17.30;15.40;;;;;;;9.04;63.52;103052.30;1729993;82;21297;-48
2021/03/30 05:05:48;;;;;;;18.95;16.42;;;;;;;9.01;63.82;103053.51;1736764;82;21326;-51
2021/03/30 05:08:16;;;;;;;19.07;16.85;;;;;;;8.99;63.99;103060.39;1739329;82;21152;-49
2021/03/30 05:10:48;;;;;;;20.27;17.67;;;;;;;8.99;64.19;103065.59;1739107;82;21143;-51
2021/03/30 05:13:16;;;;;;;18.07;16.15;;;;;;;8.98;64.36;103061.25;1708122;82;21165;-49
2021/03/30 05:15:44;;;;;;;21.65;17.92;;;;;;;8.97;64.50;103067.27;1740523;82;21186;-51
2021/03/30 05:18:11;;;;;;;22.10;18.12;;;;;;;8.97;64.62;103063.38;1735733;82;21532;-52
2021/03/30 05:20:40;;;;;;;22.32;16.60;;;;;;;8.97;64.81;103064.27;1744129;82;21152;-50
2021/03/30 05:23:07;;;;;;;17.73;15.50;;;;;;;9.01;64.77;103061.30;1732290;82;21160;-51
2021/03/30 05:25:36;;;;;;;17.35;15.28;;;;;;;9.03;64.83;103063.09;1743910;82;21147;-50
2021/03/30 05:28:05;;;;;;;22.25;17.60;;;;;;;9.09;64.79;103062.78;1735721;82;21152;-50
2021/03/30 05:30:34;;;;;;;19.80;15.15;;;;;;;9.15;64.67;103068.95;1730479;82;21127;-51
2021/03/30 05:33:02;;;;;;;19.55;16.85;;;;;;;9.20;64.63;103068.64;1730084;82;21164;-50
2021/03/30 05:35:30;;;;;;;21.10;16.73;;;;;;;9.25;64.69;103076.53;1732840;82;21152;-51
2021/03/30 05:37:58;;;;;;;18.25;16.27;;;;;;;9.25;64.80;103070.92;1732959;82;21196;-51
2021/03/30 05:40:26;;;;;;;19.42;16.40;;;;;;;9.24;64.96;103071.75;1732190;82;21135;-50
2021/03/30 05:42:54;;;;;;;19.60;14.47;;;;;;;9.27;65.18;103065.34;1733188;82;21128;-50
2021/03/30 05:45:22;;;;;;;16.85;14.68;;;;;;;9.31;65.62;103065.84;1731896;82;21160;-51
2021/03/30 05:47:50;;;;;;;18.70;16.17;;;;;;;9.45;65.57;103060.50;1742619;82;21188;-51
2021/03/30 05:50:22;;;;;;;18.30;14.93;;;;;;;9.55;65.36;103066.31;1735940;82;21302;-50
2021/03/30 05:53:02;;;;;;;21.68;15.98;;;;;;;9.64;65.18;103062.57;1731025;82;21125;-51
2021/03/30 05:55:26;;;;;;;17.55;15.03;;;;;;;9.74;65.16;103069.72;1742467;82;21133;-50
2021/03/30 05:57:55;;;;;;;21.52;16.48;;;;;;;9.92;65.04;103073.48;1737330;82;21160;-52
2021/03/30 06:00:26;;;;;;;18.70;15.00;;;;;;;10.10;64.88;103068.62;1734173;82;21141;-50
2021/03/30 06:02:56;;;;;;;18.23;15.97;;;;;;;10.37;64.31;103066.47;1721002;82;21181;-51
2021/03/30 06:05:25;;;;;;;17.10;14.40;;;;;;;10.59;63.65;103060.77;1711213;82;21141;-51
2021/03/30 06:07:53;;;;;;;18.30;14.73;;;;;;;10.78;63.16;103056.25;1714412;82;21597;-51
2021/03/30 06:10:23;;;;;;;17.05;15.18;;;;;;;10.97;62.55;103063.46;1731937;82;21156;-51
2021/03/30 06:12:54;;;;;;;18.60;14.98;;;;;;;11.08;61.94;103068.40;1728238;82;21138;-51
2021/03/30 06:15:28;;;;;;;18.12;14.18;;;;;;;11.16;61.55;103071.97;1716976;82;21144;-51
2021/03/30 06:17:59;;;;;;;17.20;14.43;;;;;;;11.22;61.26;103073.77;1708693;82;21295;-51
2021/03/30 06:20:33;;;;;;;17.82;15.93;;;;;;;11.30;61.17;103073.02;1720170;82;21122;-51
2021/03/30 06:23:06;;;;;;;17.40;15.50;;;;;;;11.43;60.97;103084.05;1715726;82;21169;-48
2021/03/30 06:25:46;;;;;;;17.02;14.98;;;;;;;11.65;60.05;103081.65;1709094;82;21140;-48
2021/03/30 06:28:20;;;;;;;16.30;14.50;;;;;;;11.75;59.42;103079.61;1719383;82;21471;-48
2021/03/30 06:31:04;;;;;;;17.05;15.30;;;;;;;11.82;59.55;103081.44;1719204;82;21303;-48
2021/03/30 06:33:54;;;;;;;19.87;15.03;;;;;;;11.93;59.35;103079.82;1724195;82;21149;-49
2021/03/30 06:36:25;;;;;;;16.20;13.28;;;;;;;12.04;58.67;103087.30;1671212;84;21193;-51
2021/03/30 06:39:10;;;;;;;17.48;14.13;;;;;;;12.11;58.36;103083.48;1768638;79;23019;-50
2021/03/30 06:41:51;;;;;;;19.77;15.45;;;;;;;12.09;58.29;103089.53;1746524;82;21148;-50
2021/03/30 06:44:28;;;;;;;22.17;16.23;;;;;;;12.10;58.14;103084.74;1738144;82;21184;-51
2021/03/30 06:47:17;;;;;;;16.42;14.43;;;;;;;12.08;57.70;103091.69;1729616;82;21172;-50
2021/03/30 06:50:02;;;;;;;19.60;14.45;;;;;;;12.00;57.95;103094.66;1734078;82;21560;-51
2021/03/30 06:52:37;;;;;;;17.73;13.93;;;;;;;11.93;58.36;103101.55;1747584;82;21549;-51
2021/03/30 06:55:14;;;;;;;20.90;16.48;;;;;;;11.88;58.49;103107.58;1729635;82;21171;-51
2021/03/30 06:57:45;;;;;;;18.05;15.23;;;;;;;11.84;58.74;103108.41;1738929;82;21165;-50
2021/03/30 07:00:30;;;;;;;18.95;15.88;;;;;;;11.83;58.68;103110.14;1727188;82;21187;-51
2021/03/30 07:03:06;;;;;;;19.30;15.48;;;;;;;11.84;58.73;103105.80;1745113;82;21175;-50
2021/03/30 07:05:40;;;;;;;20.20;16.07;;;;;;;11.89;58.66;103110.66;1739001;82;21171;-51
2021/03/30 07:08:10;;;;;;;20.00;16.05;;;;;;;11.89;58.38;103109.34;1729053;82;21160;-51
2021/03/30 07:10:43;;;;;;;17.73;15.32;;;;;;;11.87;58.33;103109.31;1738842;82;21128;-50
2021/03/30 07:13:12;;;;;;;19.17;16.07;;;;;;;11.87;58.24;103116.28;1732429;81;21152;-50
2021/03/30 07:15:41;;;;;;;18.65;15.50;;;;;;;11.85;58.29;103121.92;1730903;82;21132;-50
2021/03/30 07:18:35;;;;;;;21.33;15.95;;;;;;;11.83;58.72;103126.25;1728066;82;21491;-48
2021/03/30 07:21:24;;;;;;;18.17;15.43;;;;;;;11.88;58.65;103123.23;1735646;82;21165;-50
2021/03/30 07:24:07;;;;;;;16.70;14.90;;;;;;;11.97;58.36;103122.04;1730140;82;21632;-53
2021/03/30 07:26:47;;;;;;;18.40;15.90;;;;;;;12.01;58.00;103129.89;1742612;82;21097;-51
2021/03/30 07:29:18;;;;;;;19.62;16.10;;;;;;;12.04;57.82;103127.33;1672954;85;21184;-51
2021/03/30 07:32:14;;;;;;;24.07;16.55;;;;;;;11.98;57.79;103131.18;1660123;86;21654;-51
2021/03/30 07:34:53;;;;;;;18.50;15.53;;;;;;;11.91;58.06;103135.88;1663644;86;21351;-51
2021/03/30 07:37:39;;;;;;;19.50;14.63;;;;;;;11.89;58.43;103139.35;1661561;86;21204;-51
2021/03/30 07:40:10;;;;;;;19.82;15.63;;;;;;;11.83;58.81;103143.20;1675251;85;21165;-51
2021/03/30 07:42:40;;;;;;;18.45;16.42;;;;;;;11.83;58.81;103140.59;1675750;85;21100;-51
2021/03/30 07:45:11;;;;;;;18.10;15.45;;;;;;;11.80;59.04;103140.55;1676033;85;21652;-51
2021/03/30 07:47:39;;;;;;;17.30;15.38;;;;;;;11.86;58.87;103138.00;1653141;85;21219;-50
2021/03/30 07:50:08;;;;;;;18.35;15.65;;;;;;;11.86;58.80;103141.91;1680914;84;21124;-51
2021/03/30 07:52:49;;;;;;;19.62;16.57;;;;;;;11.86;58.82;103151.05;1667993;85;21164;-51
2021/03/30 07:58:06;;;;;;;19.17;14.30;;;;;;;11.77;59.04;103140.50;1764669;79;22783;-50
2021/03/30 08:00:46;;;;;;;18.20;15.25;;;;;;;11.80;58.92;103148.37;1732390;82;21637;-50
2021/03/30 08:03:19;;;;;;;16.50;14.70;;;;;;;11.82;58.75;103149.27;1736074;82;21105;-49
2021/03/30 08:06:10;;;;;;;19.32;16.87;;;;;;;11.87;58.80;103147.14;1801586;79;22995;-50
2021/03/30 08:08:51;;;;;;;21.45;16.40;;;;;;;11.87;58.56;103142.38;1769432;79;23075;-50
2021/03/30 08:11:42;;;;;;;19.45;15.95;;;;;;;11.81;58.77;103146.22;1733859;82;21156;-50
2021/03/30 08:14:38;;;;;;;18.02;15.18;;;;;;;11.77;59.14;103145.71;1738415;82;21569;-50
2021/03/30 08:17:14;;;;;;;22.30;16.90;;;;;;;11.81;59.10;103150.98;1729320;82;21743;-50
2021/03/30 08:19:56;;;;;;;19.70;15.83;;;;;;;11.79;59.00;103144.87;1722585;82;21175;-50
2021/03/30 08:22:26;;;;;;;20.60;16.37;;;;;;;11.86;58.91;103151.05;1731550;82;21252;-50
2021/03/30 08:24:56;;;;;;;19.23;16.50;;;;;;;11.85;58.94;103154.53;1729168;82;21147;-50
2021/03/30 08:27:38;;;;;;;23.02;16.40;;;;;;;11.86;58.98;103152.34;1725629;82;21172;-49
2021/03/30 08:30:23;;;;;;;21.42;15.55;;;;;;;11.84;58.89;103154.95;1731403;82;21184;-50
2021/03/30 08:32:58;;;;;;;16.67;14.05;;;;;;;11.90;58.41;103154.12;1816315;79;22854;-52
2021/03/30 08:35:37;;;;;;;18.55;15.23;;;;;;;11.89;58.51;103158.92;1779049;80;21572;-50
2021/03/30 08:38:06;;;;;;;18.82;15.05;;;;;;;11.94;58.29;103158.52;1775876;80;21326;-50
2021/03/30 08:40:39;;;;;;;21.02;16.55;;;;;;;11.95;58.57;103161.59;1785975;80;21136;-50
2021/03/30 08:43:20;;;;;;;15.78;14.10;;;;;;;11.99;58.41;103157.70;1771562;80;21105;-50
2021/03/30 08:46:13;;;;;;;18.12;14.53;;;;;;;12.08;58.42;103163.45;1786855;80;21569;-50
2021/03/30 08:48:48;;;;;;;16.55;14.23;;;;;;;12.15;57.96;103162.66;1788014;80;21302;-50
2021/03/30 08:51:20;;;;;;;19.02;15.20;;;;;;;12.19;57.72;103164.02;1790926;80;21152;-50
2021/03/30 08:53:48;;;;;;;18.62;14.40;;;;;;;12.23;57.79;103160.58;1793046;80;21147;-50
2021/03/30 08:56:28;;;;;;;18.55;15.00;;;;;;;12.30;57.56;103157.60;1769892;80;21108;-51
2021/03/30 08:58:57;;;;;;;15.83;14.10;;;;;;;12.30;57.13;103156.30;1753296;80;21303;-50
2021/03/30 09:01:25;;;;;;;16.07;14.40;;;;;;;12.24;57.25;103154.94;1772442;80;21157;-49
2021/03/30 09:03:55;;;;;;;20.37;14.73;;;;;;;12.24;57.02;103157.55;1791086;80;21125;-49
2021/03/30 09:06:36;;;;;;;16.82;15.03;;;;;;;12.22;56.79;103160.54;1788316;80;21282;-49
2021/03/30 09:09:25;;;;;;;18.10;14.30;;;;;;;12.21;56.86;103157.50;1776724;80;21100;-50
2021/03/30 09:11:53;;;;;;;14.80;12.90;;;;;;;12.16;56.73;103156.56;1717204;81;21126;-49
2021/03/30 09:14:22;;;;;;;17.87;15.10;;;;;;;12.13;57.15;103161.77;1735255;81;21171;-49
2021/03/30 09:16:51;;;;;;;19.15;14.65;;;;;;;12.21;56.77;103162.30;1725914;81;21136;-51
2021/03/30 09:22:09;;;;;;;16.97;12.37;;;;;;;12.30;56.36;103161.52;1768143;79;22682;-50
2021/03/30 09:27:11;;;;;;;13.45;12.05;;;;;;;12.32;56.48;103165.44;1734056;82;21156;-49
2021/03/30 09:29:39;;;;;;;14.78;11.70;;;;;;;12.44;56.41;103166.42;1702098;83;21611;-50
2021/03/30 09:32:09;;;;;;;13.68;12.13;;;;;;;12.53;56.17;103165.18;1700342;83;21187;-50
2021/03/30 09:34:40;;;;;;;13.08;11.55;;;;;;;12.68;55.71;103163.13;1694712;84;21175;-50
2021/03/30 09:37:08;;;;;;;13.03;10.98;;;;;;;12.77;55.26;103165.40;1710975;84;21171;-51
2021/03/30 09:39:36;;;;;;;12.25;10.18;;;;;;;12.82;55.17;103166.28;1696883;84;21219;-50
2021/03/30 09:42:06;;;;;;;16.15;11.88;;;;;;;12.89;54.65;103160.67;1698710;84;21604;-50
2021/03/30 09:44:44;;;;;;;14.63;12.23;;;;;;;12.98;54.38;103169.90;1703506;84;21160;-50
2021/03/30 09:47:14;;;;;;;15.25;11.35;;;;;;;13.04;54.10;103169.97;1693159;84;21187;-50
2021/03/30 09:49:43;;;;;;;14.87;13.25;;;;;;;13.03;53.75;103170.36;1676707;84;21168;-50
2021/03/30 09:52:13;;;;;;;16.48;12.18;;;;;;;12.97;53.93;103171.63;1691915;84;21180;-51
2021/03/30 09:54:43;;;;;;;13.55;11.48;;;;;;;12.94;53.91;103165.52;1700817;84;21140;-50
2021/03/30 09:57:15;;;;;;;15.60;12.60;;;;;;;12.87;54.00;103165.91;1695236;84;21151;-50
2021/03/30 09:59:47;;;;;;;17.25;13.60;;;;;;;12.82;53.93;103168.90;1702269;84;21172;-50
2021/03/30 10:02:17;;;;;;;15.25;12.28;;;;;;;12.77;54.13;103170.62;1686453;84;21168;-51
2021/03/30 10:04:47;;;;;;;13.70;10.88;;;;;;;12.77;54.08;103173.66;1706408;83;21155;-51
2021/03/30 10:07:17;;;;;;;21.33;12.75;;;;;;;12.75;53.65;103171.05;1683357;83;21198;-50
2021/03/30 10:10:00;;;;;;;19.07;12.20;;;;;;;12.78;53.76;103170.17;1691731;84;21155;-50
2021/03/30 10:12:32;;;;;;;13.50;10.75;;;;;;;12.79;53.86;103175.43;1700004;84;21179;-50
2021/03/30 10:15:02;;;;;;;12.15;10.82;;;;;;;12.86;54.03;103166.75;1694791;84;21294;-50
2021/03/30 10:17:33;;;;;;;9.88;8.88;;;;;;;13.00;53.84;103172.94;1705918;83;21171;-50
2021/03/30 10:20:00;;;;;;;14.68;11.00;;;;;;;13.13;53.37;103174.39;1688510;84;21184;-50
2021/03/30 10:22:34;;;;;;;41.77;12.43;;;;;;;13.25;52.97;103173.14;1686485;84;22734;-50
2021/03/30 10:25:17;;;;;;;11.63;9.78;;;;;;;13.32;52.68;103164.45;1723206;82;21129;-52
2021/03/30 10:27:58;;;;;;;12.37;10.45;;;;;;;13.40;52.05;103170.59;1727589;82;21576;-49
2021/03/30 10:33:43;;;;;;;10.38;9.20;;;;;;;13.37;51.71;103166.24;1821352;77;23563;-50
2021/03/30 10:36:14;;;;;;;12.07;9.13;;;;;;;13.31;51.72;103176.67;1814199;78;21595;-50
2021/03/30 10:39:02;;;;;;;10.20;9.20;;;;;;;13.36;51.57;103175.36;1810740;78;21860;-50
2021/03/30 10:41:36;;;;;;;10.63;9.53;;;;;;;13.42;51.39;103171.47;1810398;78;21262;-50
2021/03/30 10:44:04;;;;;;;16.85;11.22;;;;;;;13.46;51.15;103162.77;1814692;78;21938;-50
2021/03/30 10:46:42;;;;;;;11.08;9.38;;;;;;;13.49;51.29;103164.11;1821983;78;21148;-49
2021/03/30 10:49:10;;;;;;;13.58;10.05;;;;;;;13.56;51.11;103163.28;1746651;80;21297;-50
2021/03/30 10:51:42;;;;;;;12.13;9.98;;;;;;;13.64;50.93;103163.72;1753869;81;21561;-50
2021/03/30 10:54:12;;;;;;;13.25;11.70;;;;;;;13.75;50.91;103158.53;1754267;81;21162;-51
2021/03/30 10:56:42;;;;;;;14.80;11.83;;;;;;;13.82;50.44;103162.92;1756662;81;21160;-50
2021/03/30 10:59:15;;;;;;;16.90;12.70;;;;;;;13.86;50.16;103156.41;1757621;81;21311;-50
2021/03/30 11:01:43;;;;;;;12.98;11.25;;;;;;;13.87;50.21;103156.83;1697567;83;21160;-51
2021/03/30 11:04:10;;;;;;;12.63;11.30;;;;;;;13.86;50.33;103158.14;1681419;83;21683;-50
2021/03/30 11:06:42;;;;;;;14.25;12.55;;;;;;;13.87;50.41;103153.33;1704645;83;21536;-50
2021/03/30 11:09:12;;;;;;;13.72;12.33;;;;;;;13.87;50.21;103155.52;1680791;83;21180;-50
2021/03/30 11:11:41;;;;;;;14.30;11.80;;;;;;;13.90;50.33;103142.88;1705205;83;21136;-49
2021/03/30 11:14:09;;;;;;;15.13;13.53;;;;;;;13.95;50.08;103148.13;1688826;83;21156;-49
2021/03/30 11:16:38;;;;;;;15.70;13.10;;;;;;;13.93;49.91;103155.11;1697813;83;21977;-49
2021/03/30 11:19:10;;;;;;;18.05;13.98;;;;;;;13.91;49.97;103154.23;1688939;83;21604;-49
2021/03/30 11:21:37;;;;;;;16.75;14.05;;;;;;;13.92;50.12;103145.49;1692180;83;21349;-50
2021/03/30 11:24:10;;;;;;;17.02;13.95;;;;;;;13.97;50.12;103144.66;1694544;83;21159;-50
2021/03/30 11:26:39;;;;;;;20.12;14.15;;;;;;;14.06;50.36;103139.41;1697803;83;21151;-50
2021/03/30 11:29:09;;;;;;;16.82;13.55;;;;;;;14.14;49.87;103142.91;1692024;83;21156;-50
2021/03/30 11:39:37;;;;;;;16.57;13.60;;;;;;;14.38;49.06;103132.52;1734302;80;21182;-50
2021/03/30 11:42:06;;;;;;;15.78;14.18;;;;;;;14.41;48.89;103128.57;1759417;80;21131;-49
2021/03/30 11:44:35;;;;;;;29.12;15.23;;;;;;;14.42;49.15;103118.55;1752461;80;21193;-49
2021/03/30 11:47:04;;;;;;;15.90;13.70;;;;;;;14.45;49.09;103118.53;1767705;80;21231;-49
2021/03/30 11:49:33;;;;;;;16.90;14.00;;;;;;;14.47;48.89;103118.09;1756583;80;21150;-50
2021/03/30 11:52:02;;;;;;;15.48;13.85;;;;;;;14.48;48.69;103113.30;1735305;80;21171;-49
2021/03/30 11:54:31;;;;;;;19.02;13.93;;;;;;;14.49;48.70;103119.39;1746646;80;21147;-49
2021/03/30 11:56:59;;;;;;;15.25;13.72;;;;;;;14.49;48.67;103111.53;1760146;80;21210;-50